sensor_id;sensor_type;location;lat;lon;timestamp;P1;durP1;ratioP1;P2;durP2;ratioP2
21215;SDS011;10765;50.954;5.322;2023-06-05T00:00:58;4.93;;;2.80;;
21215;SDS011;10765;50.954;5.322;2023-06-05T00:03:26;4.67;;;2.77;;
21215;SDS011;10765;50.954;5.322;2023-06-05T00:05:54;4.03;;;2.77;;
21215;SDS011;10765;50.954;5.322;2023-06-05T00:08:21;6.13;;;2.80;;
21215;SDS011;10765;50.954;5.322;2023-06-05T00:10:48;4.63;;;2.87;;
21215;SDS011;10765;50.954;5.322;2023-06-05T00:13:15;3.93;;;2.77;;
21215;SDS011;10765;50.954;5.322;2023-06-05T00:15:42;4.97;;;2.70;;
21215;SDS011;10765;50.954;5.322;2023-06-05T00:18:09;5.67;;;2.57;;
21215;SDS011;10765;50.954;5.322;2023-06-05T00:20:38;3.40;;;2.60;;
21215;SDS011;10765;50.954;5.322;2023-06-05T00:23:05;5.23;;;2.90;;
21215;SDS011;10765;50.954;5.322;2023-06-05T00:25:32;6.43;;;2.87;;
21215;SDS011;10765;50.954;5.322;2023-06-05T00:27:59;5.53;;;3.00;;
21215;SDS011;10765;50.954;5.322;2023-06-05T00:30:26;4.63;;;2.60;;
21215;SDS011;10765;50.954;5.322;2023-06-05T00:32:53;5.67;;;2.87;;
21215;SDS011;10765;50.954;5.322;2023-06-05T00:35:20;4.27;;;2.57;;
21215;SDS011;10765;50.954;5.322;2023-06-05T00:37:48;4.73;;;3.13;;
21215;SDS011;10765;50.954;5.322;2023-06-05T00:40:15;4.07;;;2.83;;
21215;SDS011;10765;50.954;5.322;2023-06-05T00:42:42;4.53;;;2.83;;
21215;SDS011;10765;50.954;5.322;2023-06-05T00:45:09;5.50;;;2.80;;
21215;SDS011;10765;50.954;5.322;2023-06-05T00:47:36;5.23;;;3.13;;
21215;SDS011;10765;50.954;5.322;2023-06-05T00:50:03;4.43;;;3.37;;
21215;SDS011;10765;50.954;5.322;2023-06-05T00:52:32;3.93;;;2.80;;
21215;SDS011;10765;50.954;5.322;2023-06-05T00:55:01;5.00;;;3.10;;
21215;SDS011;10765;50.954;5.322;2023-06-05T00:57:28;3.73;;;3.20;;
21215;SDS011;10765;50.954;5.322;2023-06-05T00:59:59;4.73;;;3.43;;
21215;SDS011;10765;50.954;5.322;2023-06-05T01:02:27;4.37;;;2.97;;
21215;SDS011;10765;50.954;5.322;2023-06-05T01:04:54;4.30;;;2.87;;
21215;SDS011;10765;50.954;5.322;2023-06-05T01:07:21;4.13;;;3.20;;
21215;SDS011;10765;50.954;5.322;2023-06-05T01:09:48;5.70;;;3.27;;
21215;SDS011;10765;50.954;5.322;2023-06-05T01:12:17;5.03;;;3.40;;
21215;SDS011;10765;50.954;5.322;2023-06-05T01:14:50;4.53;;;3.63;;
21215;SDS011;10765;50.954;5.322;2023-06-05T01:17:23;7.60;;;3.53;;
21215;SDS011;10765;50.954;5.322;2023-06-05T01:19:53;5.47;;;3.83;;
21215;SDS011;10765;50.954;5.322;2023-06-05T01:22:23;5.47;;;3.20;;
21215;SDS011;10765;50.954;5.322;2023-06-05T01:24:53;4.73;;;3.60;;
21215;SDS011;10765;50.954;5.322;2023-06-05T01:27:23;4.90;;;3.47;;
21215;SDS011;10765;50.954;5.322;2023-06-05T01:29:59;4.87;;;3.40;;
21215;SDS011;10765;50.954;5.322;2023-06-05T01:32:30;5.33;;;3.40;;
21215;SDS011;10765;50.954;5.322;2023-06-05T01:35:04;6.57;;;3.70;;
21215;SDS011;10765;50.954;5.322;2023-06-05T01:37:33;8.13;;;3.70;;
21215;SDS011;10765;50.954;5.322;2023-06-05T01:40:08;5.40;;;3.87;;
21215;SDS011;10765;50.954;5.322;2023-06-05T01:42:39;5.80;;;3.50;;
21215;SDS011;10765;50.954;5.322;2023-06-05T01:45:08;6.07;;;3.90;;
21215;SDS011;10765;50.954;5.322;2023-06-05T01:47:36;6.90;;;3.93;;
21215;SDS011;10765;50.954;5.322;2023-06-05T01:50:04;5.23;;;3.93;;
21215;SDS011;10765;50.954;5.322;2023-06-05T01:52:33;4.53;;;3.63;;
21215;SDS011;10765;50.954;5.322;2023-06-05T01:55:00;6.20;;;3.77;;
21215;SDS011;10765;50.954;5.322;2023-06-05T01:57:28;6.37;;;4.23;;
21215;SDS011;10765;50.954;5.322;2023-06-05T01:59:56;4.43;;;4.03;;
21215;SDS011;10765;50.954;5.322;2023-06-05T02:02:23;5.73;;;4.07;;
21215;SDS011;10765;50.954;5.322;2023-06-05T02:04:50;4.90;;;3.90;;
21215;SDS011;10765;50.954;5.322;2023-06-05T02:07:19;5.93;;;4.03;;
21215;SDS011;10765;50.954;5.322;2023-06-05T02:09:46;5.43;;;4.20;;
21215;SDS011;10765;50.954;5.322;2023-06-05T02:12:14;4.57;;;3.73;;
21215;SDS011;10765;50.954;5.322;2023-06-05T02:14:42;6.57;;;4.20;;
21215;SDS011;10765;50.954;5.322;2023-06-05T02:17:09;5.87;;;3.97;;
21215;SDS011;10765;50.954;5.322;2023-06-05T02:19:38;5.70;;;3.97;;
21215;SDS011;10765;50.954;5.322;2023-06-05T02:22:05;4.83;;;4.30;;
21215;SDS011;10765;50.954;5.322;2023-06-05T02:24:32;6.13;;;4.20;;
21215;SDS011;10765;50.954;5.322;2023-06-05T02:27:00;5.00;;;4.20;;
21215;SDS011;10765;50.954;5.322;2023-06-05T02:29:26;5.83;;;4.50;;
21215;SDS011;10765;50.954;5.322;2023-06-05T02:31:55;5.00;;;4.20;;
21215;SDS011;10765;50.954;5.322;2023-06-05T02:34:22;5.23;;;4.27;;
21215;SDS011;10765;50.954;5.322;2023-06-05T02:36:49;7.13;;;4.40;;
21215;SDS011;10765;50.954;5.322;2023-06-05T02:39:16;5.40;;;4.07;;
21215;SDS011;10765;50.954;5.322;2023-06-05T02:41:44;5.90;;;4.77;;
21215;SDS011;10765;50.954;5.322;2023-06-05T02:44:10;6.20;;;4.60;;
21215;SDS011;10765;50.954;5.322;2023-06-05T02:46:37;6.60;;;4.53;;
21215;SDS011;10765;50.954;5.322;2023-06-05T02:49:06;6.20;;;4.43;;
21215;SDS011;10765;50.954;5.322;2023-06-05T02:51:32;6.70;;;4.57;;
21215;SDS011;10765;50.954;5.322;2023-06-05T02:54:00;6.10;;;4.87;;
21215;SDS011;10765;50.954;5.322;2023-06-05T02:56:27;7.10;;;4.67;;
21215;SDS011;10765;50.954;5.322;2023-06-05T02:58:54;7.97;;;5.07;;
21215;SDS011;10765;50.954;5.322;2023-06-05T03:01:21;5.17;;;4.67;;
21215;SDS011;10765;50.954;5.322;2023-06-05T03:03:50;7.30;;;5.43;;
21215;SDS011;10765;50.954;5.322;2023-06-05T03:06:18;6.53;;;5.17;;
21215;SDS011;10765;50.954;5.322;2023-06-05T03:08:45;8.60;;;4.90;;
21215;SDS011;10765;50.954;5.322;2023-06-05T03:11:12;6.43;;;5.13;;
21215;SDS011;10765;50.954;5.322;2023-06-05T03:13:39;6.03;;;5.43;;
21215;SDS011;10765;50.954;5.322;2023-06-05T03:16:06;6.27;;;5.03;;
21215;SDS011;10765;50.954;5.322;2023-06-05T03:18:33;5.97;;;5.33;;
21215;SDS011;10765;50.954;5.322;2023-06-05T03:21:01;6.83;;;5.57;;
21215;SDS011;10765;50.954;5.322;2023-06-05T03:23:29;6.17;;;5.27;;
21215;SDS011;10765;50.954;5.322;2023-06-05T03:25:56;6.87;;;5.33;;
21215;SDS011;10765;50.954;5.322;2023-06-05T03:28:23;5.67;;;5.10;;
21215;SDS011;10765;50.954;5.322;2023-06-05T03:30:51;6.70;;;5.87;;
21215;SDS011;10765;50.954;5.322;2023-06-05T03:33:18;6.57;;;5.73;;
21215;SDS011;10765;50.954;5.322;2023-06-05T03:35:44;6.83;;;5.50;;
21215;SDS011;10765;50.954;5.322;2023-06-05T03:38:12;7.53;;;5.73;;
21215;SDS011;10765;50.954;5.322;2023-06-05T03:40:40;8.07;;;5.57;;
21215;SDS011;10765;50.954;5.322;2023-06-05T03:43:07;6.67;;;5.77;;
21215;SDS011;10765;50.954;5.322;2023-06-05T03:45:35;7.47;;;5.53;;
21215;SDS011;10765;50.954;5.322;2023-06-05T03:48:03;10.83;;;5.93;;
21215;SDS011;10765;50.954;5.322;2023-06-05T03:50:30;7.30;;;5.60;;
21215;SDS011;10765;50.954;5.322;2023-06-05T03:53:01;8.83;;;5.87;;
21215;SDS011;10765;50.954;5.322;2023-06-05T03:55:29;7.10;;;5.97;;
21215;SDS011;10765;50.954;5.322;2023-06-05T03:58:07;7.30;;;6.60;;
21215;SDS011;10765;50.954;5.322;2023-06-05T04:00:34;8.50;;;6.53;;
21215;SDS011;10765;50.954;5.322;2023-06-05T04:03:02;7.03;;;5.93;;
21215;SDS011;10765;50.954;5.322;2023-06-05T04:05:29;7.57;;;6.17;;
21215;SDS011;10765;50.954;5.322;2023-06-05T04:07:56;8.77;;;6.53;;
21215;SDS011;10765;50.954;5.322;2023-06-05T04:10:23;8.00;;;6.00;;
21215;SDS011;10765;50.954;5.322;2023-06-05T04:12:50;6.70;;;5.80;;
21215;SDS011;10765;50.954;5.322;2023-06-05T04:15:18;7.90;;;5.30;;
21215;SDS011;10765;50.954;5.322;2023-06-05T04:17:45;8.37;;;5.80;;
21215;SDS011;10765;50.954;5.322;2023-06-05T04:20:12;5.90;;;5.37;;
21215;SDS011;10765;50.954;5.322;2023-06-05T04:22:39;9.30;;;5.13;;
21215;SDS011;10765;50.954;5.322;2023-06-05T04:25:07;5.53;;;5.00;;
21215;SDS011;10765;50.954;5.322;2023-06-05T04:27:35;5.57;;;4.77;;
21215;SDS011;10765;50.954;5.322;2023-06-05T04:30:04;6.83;;;5.33;;
21215;SDS011;10765;50.954;5.322;2023-06-05T04:32:34;5.70;;;5.07;;
21215;SDS011;10765;50.954;5.322;2023-06-05T04:35:02;6.63;;;5.50;;
21215;SDS011;10765;50.954;5.322;2023-06-05T04:37:29;5.37;;;4.87;;
21215;SDS011;10765;50.954;5.322;2023-06-05T04:39:56;6.10;;;5.30;;
21215;SDS011;10765;50.954;5.322;2023-06-05T04:42:24;7.73;;;5.63;;
21215;SDS011;10765;50.954;5.322;2023-06-05T04:44:53;6.90;;;5.37;;
21215;SDS011;10765;50.954;5.322;2023-06-05T04:47:22;8.80;;;7.10;;
21215;SDS011;10765;50.954;5.322;2023-06-05T04:49:50;6.03;;;4.47;;
21215;SDS011;10765;50.954;5.322;2023-06-05T04:52:19;7.10;;;5.97;;
21215;SDS011;10765;50.954;5.322;2023-06-05T04:54:46;14.60;;;12.53;;
21215;SDS011;10765;50.954;5.322;2023-06-05T04:57:13;35.60;;;28.67;;
21215;SDS011;10765;50.954;5.322;2023-06-05T04:59:41;28.00;;;22.77;;
21215;SDS011;10765;50.954;5.322;2023-06-05T05:02:08;6.20;;;5.60;;
21215;SDS011;10765;50.954;5.322;2023-06-05T05:04:35;7.47;;;6.67;;
21215;SDS011;10765;50.954;5.322;2023-06-05T05:07:03;6.17;;;5.20;;
21215;SDS011;10765;50.954;5.322;2023-06-05T05:09:31;8.00;;;5.53;;
21215;SDS011;10765;50.954;5.322;2023-06-05T05:11:58;6.10;;;5.40;;
21215;SDS011;10765;50.954;5.322;2023-06-05T05:14:25;5.97;;;4.80;;
21215;SDS011;10765;50.954;5.322;2023-06-05T05:16:53;5.50;;;4.67;;
21215;SDS011;10765;50.954;5.322;2023-06-05T05:19:20;5.90;;;5.30;;
21215;SDS011;10765;50.954;5.322;2023-06-05T05:21:48;6.30;;;5.10;;
21215;SDS011;10765;50.954;5.322;2023-06-05T05:24:16;5.53;;;5.00;;
21215;SDS011;10765;50.954;5.322;2023-06-05T05:26:43;6.73;;;5.10;;
21215;SDS011;10765;50.954;5.322;2023-06-05T05:29:10;7.17;;;5.37;;
21215;SDS011;10765;50.954;5.322;2023-06-05T05:31:37;5.30;;;4.80;;
21215;SDS011;10765;50.954;5.322;2023-06-05T05:34:04;5.97;;;4.80;;
21215;SDS011;10765;50.954;5.322;2023-06-05T05:36:31;8.33;;;5.30;;
21215;SDS011;10765;50.954;5.322;2023-06-05T05:38:58;6.67;;;5.63;;
21215;SDS011;10765;50.954;5.322;2023-06-05T05:41:27;8.77;;;5.03;;
21215;SDS011;10765;50.954;5.322;2023-06-05T05:43:53;7.20;;;4.93;;
21215;SDS011;10765;50.954;5.322;2023-06-05T05:46:20;6.20;;;5.50;;
21215;SDS011;10765;50.954;5.322;2023-06-05T05:48:47;5.80;;;5.23;;
21215;SDS011;10765;50.954;5.322;2023-06-05T05:51:14;5.70;;;5.03;;
21215;SDS011;10765;50.954;5.322;2023-06-05T05:53:41;5.00;;;4.60;;
21215;SDS011;10765;50.954;5.322;2023-06-05T05:56:08;6.63;;;5.93;;
21215;SDS011;10765;50.954;5.322;2023-06-05T05:58:36;5.70;;;4.93;;
21215;SDS011;10765;50.954;5.322;2023-06-05T06:01:03;7.07;;;5.47;;
21215;SDS011;10765;50.954;5.322;2023-06-05T06:03:31;5.67;;;5.17;;
21215;SDS011;10765;50.954;5.322;2023-06-05T06:06:03;5.70;;;5.10;;
21215;SDS011;10765;50.954;5.322;2023-06-05T06:08:32;6.20;;;5.60;;
21215;SDS011;10765;50.954;5.322;2023-06-05T06:11:00;5.63;;;4.93;;
21215;SDS011;10765;50.954;5.322;2023-06-05T06:13:29;7.00;;;5.13;;
21215;SDS011;10765;50.954;5.322;2023-06-05T06:15:57;7.27;;;4.70;;
21215;SDS011;10765;50.954;5.322;2023-06-05T06:18:24;5.73;;;4.87;;
21215;SDS011;10765;50.954;5.322;2023-06-05T06:20:51;6.43;;;5.23;;
21215;SDS011;10765;50.954;5.322;2023-06-05T06:23:18;6.23;;;5.33;;
21215;SDS011;10765;50.954;5.322;2023-06-05T06:25:45;7.20;;;4.93;;
21215;SDS011;10765;50.954;5.322;2023-06-05T06:28:12;5.13;;;4.60;;
21215;SDS011;10765;50.954;5.322;2023-06-05T06:30:39;5.73;;;5.00;;
21215;SDS011;10765;50.954;5.322;2023-06-05T06:33:08;5.60;;;5.00;;
21215;SDS011;10765;50.954;5.322;2023-06-05T06:35:35;7.00;;;5.40;;
21215;SDS011;10765;50.954;5.322;2023-06-05T06:38:03;5.70;;;5.10;;
21215;SDS011;10765;50.954;5.322;2023-06-05T06:40:30;5.97;;;5.43;;
21215;SDS011;10765;50.954;5.322;2023-06-05T06:42:57;6.23;;;4.93;;
21215;SDS011;10765;50.954;5.322;2023-06-05T06:45:23;7.13;;;4.67;;
21215;SDS011;10765;50.954;5.322;2023-06-05T06:47:51;5.97;;;5.10;;
21215;SDS011;10765;50.954;5.322;2023-06-05T06:50:19;6.57;;;5.90;;
21215;SDS011;10765;50.954;5.322;2023-06-05T06:52:46;14.00;;;6.30;;
21215;SDS011;10765;50.954;5.322;2023-06-05T06:55:13;6.40;;;5.00;;
21215;SDS011;10765;50.954;5.322;2023-06-05T06:57:40;9.60;;;5.63;;
21215;SDS011;10765;50.954;5.322;2023-06-05T07:00:07;6.17;;;5.67;;
21215;SDS011;10765;50.954;5.322;2023-06-05T07:02:35;10.23;;;5.60;;
21215;SDS011;10765;50.954;5.322;2023-06-05T07:05:03;7.43;;;5.43;;
21215;SDS011;10765;50.954;5.322;2023-06-05T07:07:32;7.47;;;5.70;;
21215;SDS011;10765;50.954;5.322;2023-06-05T07:09:59;6.77;;;5.20;;
21215;SDS011;10765;50.954;5.322;2023-06-05T07:12:26;8.57;;;5.70;;
21215;SDS011;10765;50.954;5.322;2023-06-05T07:14:53;6.57;;;5.47;;
21215;SDS011;10765;50.954;5.322;2023-06-05T07:17:20;7.03;;;5.83;;
21215;SDS011;10765;50.954;5.322;2023-06-05T07:19:47;8.43;;;5.57;;
21215;SDS011;10765;50.954;5.322;2023-06-05T07:22:15;7.87;;;5.93;;
21215;SDS011;10765;50.954;5.322;2023-06-05T07:24:43;7.93;;;5.40;;
21215;SDS011;10765;50.954;5.322;2023-06-05T07:27:10;5.97;;;5.33;;
21215;SDS011;10765;50.954;5.322;2023-06-05T07:29:37;12.40;;;6.50;;
21215;SDS011;10765;50.954;5.322;2023-06-05T07:32:05;7.10;;;5.60;;
21215;SDS011;10765;50.954;5.322;2023-06-05T07:34:32;7.20;;;5.63;;
21215;SDS011;10765;50.954;5.322;2023-06-05T07:36:59;8.93;;;5.63;;
21215;SDS011;10765;50.954;5.322;2023-06-05T07:39:26;6.33;;;5.53;;
21215;SDS011;10765;50.954;5.322;2023-06-05T07:41:55;7.30;;;5.83;;
21215;SDS011;10765;50.954;5.322;2023-06-05T07:44:22;6.57;;;5.97;;
21215;SDS011;10765;50.954;5.322;2023-06-05T07:46:49;6.57;;;5.63;;
21215;SDS011;10765;50.954;5.322;2023-06-05T07:49:16;6.83;;;5.97;;
21215;SDS011;10765;50.954;5.322;2023-06-05T07:51:44;8.97;;;6.10;;
21215;SDS011;10765;50.954;5.322;2023-06-05T07:54:13;6.07;;;5.47;;
21215;SDS011;10765;50.954;5.322;2023-06-05T07:56:41;7.40;;;6.10;;
21215;SDS011;10765;50.954;5.322;2023-06-05T07:59:10;8.07;;;5.80;;
21215;SDS011;10765;50.954;5.322;2023-06-05T08:01:39;7.30;;;6.60;;
21215;SDS011;10765;50.954;5.322;2023-06-05T08:04:06;8.03;;;6.40;;
21215;SDS011;10765;50.954;5.322;2023-06-05T08:06:35;7.07;;;5.80;;
21215;SDS011;10765;50.954;5.322;2023-06-05T08:09:05;8.23;;;6.37;;
21215;SDS011;10765;50.954;5.322;2023-06-05T08:11:34;11.07;;;6.07;;
21215;SDS011;10765;50.954;5.322;2023-06-05T08:14:01;6.85;;;6.15;;
21215;SDS011;10765;50.954;5.322;2023-06-05T08:16:32;7.80;;;6.30;;
21215;SDS011;10765;50.954;5.322;2023-06-05T08:18:59;9.85;;;6.60;;
21215;SDS011;10765;50.954;5.322;2023-06-05T08:21:26;7.93;;;6.73;;
21215;SDS011;10765;50.954;5.322;2023-06-05T08:23:53;6.28;;;5.68;;
21215;SDS011;10765;50.954;5.322;2023-06-05T08:26:20;9.57;;;6.60;;
21215;SDS011;10765;50.954;5.322;2023-06-05T08:28:47;9.18;;;6.93;;
21215;SDS011;10765;50.954;5.322;2023-06-05T08:31:15;7.93;;;6.45;;
21215;SDS011;10765;50.954;5.322;2023-06-05T08:33:43;8.60;;;6.60;;
21215;SDS011;10765;50.954;5.322;2023-06-05T08:36:10;9.27;;;6.90;;
21215;SDS011;10765;50.954;5.322;2023-06-05T08:38:37;9.23;;;6.95;;
21215;SDS011;10765;50.954;5.322;2023-06-05T08:41:04;11.68;;;7.05;;
21215;SDS011;10765;50.954;5.322;2023-06-05T08:43:34;7.82;;;6.63;;
21215;SDS011;10765;50.954;5.322;2023-06-05T08:46:02;7.30;;;6.65;;
21215;SDS011;10765;50.954;5.322;2023-06-05T08:48:30;9.23;;;6.68;;
21215;SDS011;10765;50.954;5.322;2023-06-05T08:51:01;7.93;;;7.07;;
21215;SDS011;10765;50.954;5.322;2023-06-05T08:53:29;7.80;;;7.10;;
21215;SDS011;10765;50.954;5.322;2023-06-05T08:55:59;8.63;;;6.68;;
21215;SDS011;10765;50.954;5.322;2023-06-05T08:58:28;8.75;;;6.70;;
21215;SDS011;10765;50.954;5.322;2023-06-05T09:00:55;7.75;;;7.05;;
21215;SDS011;10765;50.954;5.322;2023-06-05T09:03:22;8.20;;;6.35;;
21215;SDS011;10765;50.954;5.322;2023-06-05T09:05:50;9.40;;;6.03;;
21215;SDS011;10765;50.954;5.322;2023-06-05T09:08:22;9.43;;;5.80;;
21215;SDS011;10765;50.954;5.322;2023-06-05T09:10:56;6.95;;;6.35;;
21215;SDS011;10765;50.954;5.322;2023-06-05T09:13:50;9.50;;;6.65;;
21215;SDS011;10765;50.954;5.322;2023-06-05T09:16:19;7.20;;;6.05;;
21215;SDS011;10765;50.954;5.322;2023-06-05T09:18:53;7.57;;;6.38;;
21215;SDS011;10765;50.954;5.322;2023-06-05T09:21:21;9.75;;;5.82;;
21215;SDS011;10765;50.954;5.322;2023-06-05T09:24:01;7.53;;;6.60;;
21215;SDS011;10765;50.954;5.322;2023-06-05T09:26:46;7.30;;;6.57;;
21215;SDS011;10765;50.954;5.322;2023-06-05T09:29:19;7.68;;;6.28;;
21215;SDS011;10765;50.954;5.322;2023-06-05T09:31:48;6.70;;;6.00;;
21215;SDS011;10765;50.954;5.322;2023-06-05T09:34:26;7.85;;;6.45;;
21215;SDS011;10765;50.954;5.322;2023-06-05T09:36:55;8.30;;;7.45;;
21215;SDS011;10765;50.954;5.322;2023-06-05T09:39:25;6.97;;;6.25;;
21215;SDS011;10765;50.954;5.322;2023-06-05T09:41:53;6.38;;;5.88;;
21215;SDS011;10765;50.954;5.322;2023-06-05T09:44:21;8.55;;;5.90;;
21215;SDS011;10765;50.954;5.322;2023-06-05T09:46:53;7.47;;;6.75;;
21215;SDS011;10765;50.954;5.322;2023-06-05T09:49:23;7.43;;;6.72;;
21215;SDS011;10765;50.954;5.322;2023-06-05T09:51:51;7.80;;;6.03;;
21215;SDS011;10765;50.954;5.322;2023-06-05T09:54:18;7.97;;;6.30;;
21215;SDS011;10765;50.954;5.322;2023-06-05T09:56:48;7.07;;;6.38;;
21215;SDS011;10765;50.954;5.322;2023-06-05T09:59:20;7.20;;;6.50;;
21215;SDS011;10765;50.954;5.322;2023-06-05T10:01:48;7.00;;;6.30;;
21215;SDS011;10765;50.954;5.322;2023-06-05T10:04:18;8.32;;;7.57;;
21215;SDS011;10765;50.954;5.322;2023-06-05T10:06:48;7.88;;;6.18;;
21215;SDS011;10765;50.954;5.322;2023-06-05T10:09:16;10.27;;;6.05;;
21215;SDS011;10765;50.954;5.322;2023-06-05T10:11:47;6.47;;;5.85;;
21215;SDS011;10765;50.954;5.322;2023-06-05T10:14:16;8.70;;;5.50;;
21215;SDS011;10765;50.954;5.322;2023-06-05T10:16:44;6.03;;;5.20;;
21215;SDS011;10765;50.954;5.322;2023-06-05T10:19:15;6.40;;;5.80;;
21215;SDS011;10765;50.954;5.322;2023-06-05T10:21:45;7.10;;;6.32;;
21215;SDS011;10765;50.954;5.322;2023-06-05T10:24:13;6.90;;;5.20;;
21215;SDS011;10765;50.954;5.322;2023-06-05T10:32:49;5.72;;;5.07;;
21215;SDS011;10765;50.954;5.322;2023-06-05T10:35:29;7.15;;;4.80;;
21215;SDS011;10765;50.954;5.322;2023-06-05T10:38:11;8.00;;;5.90;;
21215;SDS011;10765;50.954;5.322;2023-06-05T10:40:43;6.93;;;5.43;;
21215;SDS011;10765;50.954;5.322;2023-06-05T10:43:24;6.22;;;5.60;;
21215;SDS011;10765;50.954;5.322;2023-06-05T10:45:55;4.85;;;4.35;;
21215;SDS011;10765;50.954;5.322;2023-06-05T10:51:31;6.95;;;4.68;;
21215;SDS011;10765;50.954;5.322;2023-06-05T10:54:02;5.28;;;4.78;;
21215;SDS011;10765;50.954;5.322;2023-06-05T10:59:23;7.28;;;4.05;;
21215;SDS011;10765;50.954;5.322;2023-06-05T11:05:07;5.00;;;4.30;;
21215;SDS011;10765;50.954;5.322;2023-06-05T11:07:38;5.15;;;4.45;;
21215;SDS011;10765;50.954;5.322;2023-06-05T11:10:09;6.78;;;3.90;;
21215;SDS011;10765;50.954;5.322;2023-06-05T11:15:39;6.50;;;4.47;;
21215;SDS011;10765;50.954;5.322;2023-06-05T11:20:58;5.63;;;3.70;;
21215;SDS011;10765;50.954;5.322;2023-06-05T11:23:26;5.75;;;4.20;;
21215;SDS011;10765;50.954;5.322;2023-06-05T11:25:58;3.88;;;3.45;;
21215;SDS011;10765;50.954;5.322;2023-06-05T11:29:02;3.65;;;3.35;;
21215;SDS011;10765;50.954;5.322;2023-06-05T11:31:42;8.60;;;4.25;;
21215;SDS011;10765;50.954;5.322;2023-06-05T11:34:10;5.10;;;3.78;;
21215;SDS011;10765;50.954;5.322;2023-06-05T11:36:38;4.50;;;3.55;;
21215;SDS011;10765;50.954;5.322;2023-06-05T11:39:05;5.22;;;3.08;;
21215;SDS011;10765;50.954;5.322;2023-06-05T11:41:33;4.80;;;3.60;;
21215;SDS011;10765;50.954;5.322;2023-06-05T11:44:00;4.13;;;3.33;;
21215;SDS011;10765;50.954;5.322;2023-06-05T11:46:36;9.00;;;4.07;;
21215;SDS011;10765;50.954;5.322;2023-06-05T11:49:05;3.53;;;3.22;;
21215;SDS011;10765;50.954;5.322;2023-06-05T11:51:32;8.25;;;3.75;;
21215;SDS011;10765;50.954;5.322;2023-06-05T11:53:59;6.03;;;3.53;;
21215;SDS011;10765;50.954;5.322;2023-06-05T11:56:28;4.78;;;3.65;;
21215;SDS011;10765;50.954;5.322;2023-06-05T11:58:55;4.15;;;3.53;;
21215;SDS011;10765;50.954;5.322;2023-06-05T12:01:22;3.20;;;2.83;;
21215;SDS011;10765;50.954;5.322;2023-06-05T12:04:01;5.50;;;2.60;;
21215;SDS011;10765;50.954;5.322;2023-06-05T12:06:30;5.05;;;2.42;;
21215;SDS011;10765;50.954;5.322;2023-06-05T12:09:07;2.55;;;2.35;;
21215;SDS011;10765;50.954;5.322;2023-06-05T12:11:35;4.47;;;2.05;;
21215;SDS011;10765;50.954;5.322;2023-06-05T12:14:04;3.20;;;2.60;;
21215;SDS011;10765;50.954;5.322;2023-06-05T12:16:32;5.57;;;2.38;;
21215;SDS011;10765;50.954;5.322;2023-06-05T12:19:00;4.75;;;2.30;;
21215;SDS011;10765;50.954;5.322;2023-06-05T12:21:27;2.28;;;2.08;;
21215;SDS011;10765;50.954;5.322;2023-06-05T12:24:02;5.35;;;2.20;;
21215;SDS011;10765;50.954;5.322;2023-06-05T12:26:37;3.90;;;2.05;;
21215;SDS011;10765;50.954;5.322;2023-06-05T12:29:18;3.97;;;2.40;;
21215;SDS011;10765;50.954;5.322;2023-06-05T12:31:46;4.05;;;2.72;;
21215;SDS011;10765;50.954;5.322;2023-06-05T12:34:14;3.65;;;2.83;;
21215;SDS011;10765;50.954;5.322;2023-06-05T12:36:42;3.80;;;2.70;;
21215;SDS011;10765;50.954;5.322;2023-06-05T12:39:11;5.60;;;2.35;;
21215;SDS011;10765;50.954;5.322;2023-06-05T12:41:40;3.53;;;2.05;;
21215;SDS011;10765;50.954;5.322;2023-06-05T12:44:09;4.35;;;2.00;;
21215;SDS011;10765;50.954;5.322;2023-06-05T12:46:36;6.93;;;2.60;;
21215;SDS011;10765;50.954;5.322;2023-06-05T12:49:03;4.40;;;2.10;;
21215;SDS011;10765;50.954;5.322;2023-06-05T12:51:31;2.60;;;2.25;;
21215;SDS011;10765;50.954;5.322;2023-06-05T12:53:59;4.22;;;2.47;;
21215;SDS011;10765;50.954;5.322;2023-06-05T12:56:27;4.50;;;2.80;;
21215;SDS011;10765;50.954;5.322;2023-06-05T12:58:54;4.00;;;2.63;;
21215;SDS011;10765;50.954;5.322;2023-06-05T13:01:22;4.40;;;2.60;;
21215;SDS011;10765;50.954;5.322;2023-06-05T13:03:50;4.85;;;2.80;;
21215;SDS011;10765;50.954;5.322;2023-06-05T13:06:17;4.50;;;2.50;;
21215;SDS011;10765;50.954;5.322;2023-06-05T13:08:45;5.00;;;2.88;;
21215;SDS011;10765;50.954;5.322;2023-06-05T13:11:12;3.00;;;2.30;;
21215;SDS011;10765;50.954;5.322;2023-06-05T13:13:41;6.20;;;2.45;;
21215;SDS011;10765;50.954;5.322;2023-06-05T13:16:09;4.07;;;2.60;;
21215;SDS011;10765;50.954;5.322;2023-06-05T13:18:36;2.60;;;2.40;;
21215;SDS011;10765;50.954;5.322;2023-06-05T13:21:03;4.13;;;2.30;;
21215;SDS011;10765;50.954;5.322;2023-06-05T13:23:30;4.35;;;2.28;;
21215;SDS011;10765;50.954;5.322;2023-06-05T13:25:58;2.65;;;2.05;;
21215;SDS011;10765;50.954;5.322;2023-06-05T13:28:25;3.50;;;2.42;;
21215;SDS011;10765;50.954;5.322;2023-06-05T13:30:54;5.90;;;2.28;;
21215;SDS011;10765;50.954;5.322;2023-06-05T13:33:21;6.80;;;2.72;;
21215;SDS011;10765;50.954;5.322;2023-06-05T13:35:49;2.70;;;2.42;;
21215;SDS011;10765;50.954;5.322;2023-06-05T13:38:17;2.78;;;2.55;;
21215;SDS011;10765;50.954;5.322;2023-06-05T13:40:44;3.78;;;2.40;;
21215;SDS011;10765;50.954;5.322;2023-06-05T13:43:13;4.00;;;2.37;;
21215;SDS011;10765;50.954;5.322;2023-06-05T13:45:43;4.47;;;2.60;;
21215;SDS011;10765;50.954;5.322;2023-06-05T13:48:11;4.77;;;2.37;;
21215;SDS011;10765;50.954;5.322;2023-06-05T13:50:38;4.90;;;2.37;;
21215;SDS011;10765;50.954;5.322;2023-06-05T13:53:05;3.27;;;2.13;;
21215;SDS011;10765;50.954;5.322;2023-06-05T13:55:32;3.83;;;2.23;;
21215;SDS011;10765;50.954;5.322;2023-06-05T13:57:59;2.60;;;2.27;;
21215;SDS011;10765;50.954;5.322;2023-06-05T14:00:30;4.63;;;2.17;;
21215;SDS011;10765;50.954;5.322;2023-06-05T14:02:57;4.67;;;2.27;;
21215;SDS011;10765;50.954;5.322;2023-06-05T14:05:26;4.10;;;2.60;;
21215;SDS011;10765;50.954;5.322;2023-06-05T14:07:54;4.87;;;2.23;;
21215;SDS011;10765;50.954;5.322;2023-06-05T14:10:22;2.50;;;2.30;;
21215;SDS011;10765;50.954;5.322;2023-06-05T14:12:50;5.23;;;2.30;;
21215;SDS011;10765;50.954;5.322;2023-06-05T14:15:18;3.70;;;2.57;;
21215;SDS011;10765;50.954;5.322;2023-06-05T14:17:48;2.80;;;2.23;;
21215;SDS011;10765;50.954;5.322;2023-06-05T14:20:16;3.33;;;2.30;;
21215;SDS011;10765;50.954;5.322;2023-06-05T14:22:45;2.90;;;2.20;;
21215;SDS011;10765;50.954;5.322;2023-06-05T14:25:12;2.33;;;2.00;;
21215;SDS011;10765;50.954;5.322;2023-06-05T14:27:39;5.23;;;2.47;;
21215;SDS011;10765;50.954;5.322;2023-06-05T14:30:06;6.23;;;2.33;;
21215;SDS011;10765;50.954;5.322;2023-06-05T14:32:34;5.50;;;2.50;;
21215;SDS011;10765;50.954;5.322;2023-06-05T14:35:02;5.67;;;2.47;;
21215;SDS011;10765;50.954;5.322;2023-06-05T14:37:30;3.37;;;2.10;;
21215;SDS011;10765;50.954;5.322;2023-06-05T14:39:58;3.13;;;2.30;;
21215;SDS011;10765;50.954;5.322;2023-06-05T14:42:25;3.50;;;2.30;;
21215;SDS011;10765;50.954;5.322;2023-06-05T14:44:52;4.13;;;2.40;;
21215;SDS011;10765;50.954;5.322;2023-06-05T14:47:19;5.17;;;1.87;;
21215;SDS011;10765;50.954;5.322;2023-06-05T14:49:47;2.73;;;2.27;;
21215;SDS011;10765;50.954;5.322;2023-06-05T14:52:14;1.80;;;1.70;;
21215;SDS011;10765;50.954;5.322;2023-06-05T14:54:42;2.83;;;2.10;;
21215;SDS011;10765;50.954;5.322;2023-06-05T14:57:10;3.00;;;2.20;;
21215;SDS011;10765;50.954;5.322;2023-06-05T14:59:37;6.00;;;2.00;;
21215;SDS011;10765;50.954;5.322;2023-06-05T15:02:05;2.40;;;2.00;;
21215;SDS011;10765;50.954;5.322;2023-06-05T15:04:32;5.20;;;2.47;;
21215;SDS011;10765;50.954;5.322;2023-06-05T15:06:59;4.30;;;2.10;;
21215;SDS011;10765;50.954;5.322;2023-06-05T15:09:26;2.70;;;2.10;;
21215;SDS011;10765;50.954;5.322;2023-06-05T15:11:54;3.13;;;2.23;;
21215;SDS011;10765;50.954;5.322;2023-06-05T15:14:24;3.17;;;2.20;;
21215;SDS011;10765;50.954;5.322;2023-06-05T15:16:51;4.23;;;2.03;;